createdAt,value
2023-04-29T00:00:27.609Z,7.70
2023-04-29T00:02:55.004Z,7.37
2023-04-29T00:05:22.000Z,7.37
2023-04-29T00:07:48.749Z,6.90
2023-04-29T00:10:15.627Z,6.80
2023-04-29T00:12:42.666Z,6.90
2023-04-29T00:15:09.636Z,6.43
2023-04-29T00:17:36.933Z,7.37
2023-04-29T00:20:04.091Z,7.40
2023-04-29T00:22:30.710Z,7.20
2023-04-29T00:24:57.276Z,6.67
2023-04-29T00:27:23.895Z,7.43
2023-04-29T00:29:52.026Z,7.17
2023-04-29T00:32:18.829Z,6.83
2023-04-29T00:34:45.484Z,6.77
2023-04-29T00:37:12.586Z,7.13
2023-04-29T00:39:39.451Z,6.60
2023-04-29T00:42:06.981Z,6.83
2023-04-29T00:44:34.459Z,6.20
2023-04-29T00:47:01.078Z,6.57
2023-04-29T00:49:27.964Z,7.07
2023-04-29T00:51:56.423Z,6.70
2023-04-29T00:54:23.043Z,6.60
2023-04-29T00:56:49.622Z,6.93
2023-04-29T00:59:17.265Z,7.17
2023-04-29T01:01:44.793Z,7.00
2023-04-29T01:04:13.451Z,7.37
2023-04-29T01:06:51.737Z,6.47
2023-04-29T01:09:27.703Z,7.13
2023-04-29T01:12:13.318Z,7.30
2023-04-29T01:14:39.973Z,7.27
2023-04-29T01:17:10.353Z,6.43
2023-04-29T01:19:46.445Z,6.90
2023-04-29T01:22:14.605Z,7.00
2023-04-29T01:24:41.247Z,7.03
2023-04-29T01:27:24.843Z,6.63
2023-04-29T01:30:13.223Z,6.30
2023-04-29T01:32:43.164Z,6.90
2023-04-29T01:35:13.087Z,6.60
2023-04-29T01:37:50.432Z,7.07
2023-04-29T01:40:19.885Z,6.17
2023-04-29T02:15:30.792Z,5.80
2023-04-29T02:17:58.804Z,5.90
2023-04-29T02:20:25.509Z,6.33
2023-04-29T02:22:52.383Z,6.33
2023-04-29T02:25:20.284Z,5.57
2023-04-29T02:27:46.891Z,5.50
2023-04-29T02:30:13.494Z,5.50
2023-04-29T02:32:41.559Z,5.80
2023-04-29T02:35:08.608Z,5.50
2023-04-29T02:37:35.294Z,6.07
2023-04-29T02:40:03.815Z,5.57
2023-04-29T02:42:30.828Z,5.80
2023-04-29T02:44:58.789Z,5.53
2023-04-29T02:47:25.410Z,5.97
2023-04-29T02:49:52.280Z,5.80
2023-04-29T02:52:20.027Z,6.30
2023-04-29T02:54:47.718Z,6.50
2023-04-29T02:57:14.432Z,6.57
2023-04-29T02:59:41.360Z,6.00
2023-04-29T03:02:08.144Z,5.70
2023-04-29T03:04:35.086Z,6.13
2023-04-29T03:07:01.777Z,6.90
2023-04-29T03:09:28.437Z,6.00
2023-04-29T03:11:55.646Z,6.40
2023-04-29T03:14:22.543Z,6.40
2023-04-29T03:16:50.205Z,6.30
2023-04-29T03:19:17.637Z,6.00
2023-04-29T03:21:46.294Z,6.20
2023-04-29T03:24:12.909Z,6.33
2023-04-29T03:26:39.723Z,5.47
2023-04-29T03:29:06.437Z,6.13
2023-04-29T03:31:34.288Z,5.80
2023-04-29T03:34:00.990Z,5.93
2023-04-29T03:36:28.105Z,6.20
2023-04-29T03:39:01.315Z,6.40
2023-04-29T03:41:30.062Z,6.00
2023-04-29T03:44:00.790Z,5.60
2023-04-29T03:46:29.078Z,6.30
2023-04-29T03:48:59.828Z,6.70
2023-04-29T03:51:27.080Z,6.27
2023-04-29T03:54:02.695Z,6.40
2023-04-29T03:56:30.477Z,6.80
2023-04-29T03:58:57.085Z,6.90
2023-04-29T04:01:27.342Z,6.23
2023-04-29T04:03:54.038Z,6.30
2023-04-29T04:06:21.026Z,6.47
2023-04-29T04:08:49.976Z,6.63
2023-04-29T04:11:25.006Z,7.03
2023-04-29T04:13:58.089Z,6.93
2023-04-29T04:16:24.878Z,6.60
2023-04-29T04:18:52.437Z,6.80
2023-04-29T04:21:19.254Z,6.40
2023-04-29T04:23:54.105Z,6.50
2023-04-29T04:26:24.053Z,6.53
2023-04-29T04:29:19.927Z,6.13
2023-04-29T04:31:56.316Z,6.30
2023-04-29T04:34:25.012Z,6.93
2023-04-29T04:36:52.713Z,7.20
2023-04-29T04:39:19.497Z,6.57
2023-04-29T04:41:46.221Z,6.60
2023-04-29T04:44:13.407Z,6.67
2023-04-29T04:47:03.296Z,6.60
2023-04-29T04:49:40.489Z,6.60
2023-04-29T04:52:08.235Z,7.33
2023-04-29T04:54:35.830Z,6.80
2023-04-29T04:57:18.711Z,6.60
2023-04-29T04:59:45.515Z,5.77
2023-04-29T05:02:12.218Z,6.07
2023-04-29T05:04:39.183Z,6.67
2023-04-29T05:07:05.862Z,6.50
2023-04-29T05:09:48.820Z,6.37
2023-04-29T05:12:16.479Z,6.50
2023-04-29T05:14:43.061Z,5.97
2023-04-29T05:17:10.997Z,6.43
2023-04-29T05:19:37.709Z,6.07
2023-04-29T05:22:04.422Z,5.90
2023-04-29T05:24:31.142Z,5.97
2023-04-29T05:26:58.190Z,6.03
2023-04-29T05:29:24.799Z,5.97
2023-04-29T05:31:57.783Z,5.73
2023-04-29T05:34:24.584Z,5.93
2023-04-29T05:36:52.640Z,6.47
2023-04-29T05:39:19.525Z,5.13
2023-04-29T05:41:59.041Z,6.33
2023-04-29T05:44:37.295Z,5.83
2023-04-29T05:47:05.910Z,6.50
2023-04-29T05:49:32.723Z,5.80
2023-04-29T05:52:04.458Z,5.67
2023-04-29T05:54:31.479Z,6.13
2023-04-29T05:56:58.170Z,6.20
2023-04-29T05:59:25.005Z,6.43
2023-04-29T06:01:53.754Z,6.53
2023-04-29T06:04:21.426Z,6.17
2023-04-29T06:07:07.437Z,6.57
2023-04-29T06:09:54.387Z,7.40
2023-04-29T06:12:22.180Z,7.00
2023-04-29T06:14:48.747Z,6.77
2023-04-29T06:17:15.405Z,7.37
2023-04-29T06:19:42.428Z,7.87
2023-04-29T06:22:10.157Z,7.60
2023-04-29T06:24:39.528Z,7.70
2023-04-29T06:27:07.197Z,8.00
2023-04-29T06:29:33.907Z,8.30
2023-04-29T06:32:00.646Z,7.30
2023-04-29T06:34:27.368Z,7.70
2023-04-29T06:37:12.674Z,8.03
2023-04-29T06:39:54.159Z,8.13
2023-04-29T06:42:39.840Z,8.53
2023-04-29T06:45:34.330Z,7.70
2023-04-29T06:48:14.340Z,8.50
2023-04-29T06:50:54.726Z,8.70
2023-04-29T06:53:22.195Z,8.97
2023-04-29T06:55:49.181Z,9.13
2023-04-29T06:58:16.092Z,8.97
2023-04-29T07:00:47.342Z,9.40
2023-04-29T07:03:14.699Z,9.70
2023-04-29T07:05:43.444Z,9.43
2023-04-29T07:08:10.570Z,8.00
2023-04-29T07:10:37.218Z,8.73
2023-04-29T07:13:05.020Z,9.10
2023-04-29T07:15:33.993Z,9.03
2023-04-29T07:18:03.751Z,8.50
2023-04-29T07:20:30.599Z,9.17
2023-04-29T07:22:57.489Z,9.20
2023-04-29T07:25:26.296Z,9.47
2023-04-29T07:27:52.981Z,9.33
2023-04-29T07:30:19.694Z,9.67
2023-04-29T07:32:46.587Z,9.83
2023-04-29T07:35:13.353Z,9.43
2023-04-29T07:37:43.804Z,9.27
2023-04-29T07:40:14.282Z,9.00
2023-04-29T07:42:42.652Z,8.90
2023-04-29T07:45:09.642Z,8.60
2023-04-29T07:47:37.183Z,9.30
2023-04-29T07:50:04.751Z,8.40
2023-04-29T07:52:31.532Z,9.20
2023-04-29T07:54:58.341Z,9.03
2023-04-29T07:57:25.241Z,9.43
2023-04-29T07:59:55.092Z,9.33
2023-04-29T08:02:22.351Z,8.90
2023-04-29T08:04:51.743Z,9.60
2023-04-29T08:07:19.205Z,9.33
2023-04-29T08:09:46.031Z,9.47
2023-04-29T08:12:13.929Z,8.90
2023-04-29T08:14:41.086Z,9.57
2023-04-29T08:17:09.043Z,10.03
2023-04-29T08:19:36.031Z,10.17
2023-04-29T08:22:04.424Z,9.73
2023-04-29T08:24:31.295Z,9.63
2023-04-29T08:26:59.409Z,9.27
2023-04-29T08:29:26.381Z,9.20
2023-04-29T08:31:53.675Z,9.10
2023-04-29T08:34:20.657Z,9.10
2023-04-29T08:36:47.688Z,9.27
2023-04-29T08:39:15.733Z,9.10
2023-04-29T08:41:45.607Z,9.07
2023-04-29T08:44:12.407Z,8.57
2023-04-29T08:46:39.216Z,9.87
2023-04-29T08:49:06.148Z,9.87
2023-04-29T08:51:35.136Z,9.80
2023-04-29T08:54:01.987Z,9.73
2023-04-29T08:56:29.230Z,9.53
2023-04-29T08:58:56.577Z,10.00
2023-04-29T09:01:24.433Z,10.53
2023-04-29T09:03:55.312Z,9.60
2023-04-29T09:06:22.451Z,9.93
2023-04-29T09:08:50.430Z,9.90
2023-04-29T09:11:17.155Z,9.37
2023-04-29T09:13:43.852Z,10.30
2023-04-29T09:16:12.131Z,10.07
2023-04-29T09:18:49.000Z,9.77
2023-04-29T09:21:22.976Z,10.03
2023-04-29T09:23:50.933Z,10.13
2023-04-29T09:26:19.600Z,9.63
2023-04-29T09:28:49.269Z,10.17
2023-04-29T09:31:16.351Z,9.87
2023-04-29T09:33:49.886Z,10.60
2023-04-29T09:36:34.018Z,10.53
2023-04-29T09:39:02.446Z,10.47
2023-04-29T09:41:29.250Z,10.43
2023-04-29T09:44:08.018Z,10.40
2023-04-29T09:46:35.087Z,9.93
2023-04-29T09:49:01.946Z,10.00
2023-04-29T09:51:33.845Z,11.30
2023-04-29T09:54:01.772Z,10.30
2023-04-29T09:56:31.050Z,9.63
2023-04-29T09:58:59.128Z,9.77
2023-04-29T10:01:32.245Z,9.67
2023-04-29T10:03:59.202Z,10.17
2023-04-29T10:06:25.936Z,10.37
2023-04-29T10:08:52.732Z,10.73
2023-04-29T10:11:19.601Z,10.23
2023-04-29T10:13:47.164Z,10.57
2023-04-29T10:16:13.880Z,11.13
2023-04-29T10:18:41.520Z,10.83
2023-04-29T10:21:11.296Z,11.60
2023-04-29T10:23:38.807Z,11.93
2023-04-29T10:26:05.725Z,11.57
2023-04-29T10:28:32.871Z,11.17
2023-04-29T10:31:01.224Z,11.43
2023-04-29T10:33:32.404Z,11.83
2023-04-29T10:36:00.978Z,11.03
2023-04-29T10:38:38.733Z,11.70
2023-04-29T10:41:09.521Z,38.33
2023-04-29T10:43:36.355Z,55.10
2023-04-29T10:46:19.111Z,12.83
2023-04-29T10:48:47.027Z,12.43
2023-04-29T10:51:14.496Z,11.23
2023-04-29T10:54:01.032Z,13.40
2023-04-29T10:56:39.836Z,12.17
2023-04-29T10:59:12.398Z,11.40
2023-04-29T11:01:46.216Z,10.77
2023-04-29T11:04:13.521Z,10.53
2023-04-29T11:06:41.663Z,11.13
2023-04-29T11:09:22.421Z,9.47
2023-04-29T11:11:55.418Z,9.87
2023-04-29T11:14:26.404Z,9.57
2023-04-29T11:16:54.557Z,9.33
2023-04-29T11:19:21.716Z,10.10
2023-04-29T11:21:53.193Z,11.70
2023-04-29T11:24:22.084Z,10.37
2023-04-29T11:26:49.151Z,9.87
2023-04-29T11:29:20.163Z,11.23
2023-04-29T11:31:47.121Z,13.47
2023-04-29T11:34:14.215Z,14.07
2023-04-29T11:36:41.180Z,18.43
2023-04-29T11:39:08.236Z,11.47
2023-04-29T11:41:37.740Z,11.50
2023-04-29T11:44:06.639Z,10.70
2023-04-29T11:46:34.329Z,10.20
2023-04-29T11:49:01.741Z,10.63
2023-04-29T11:51:33.039Z,10.70
2023-04-29T11:54:00.493Z,10.83
2023-04-29T11:56:27.199Z,9.97
2023-04-29T11:58:57.176Z,9.67
2023-04-29T12:01:24.136Z,10.40
2023-04-29T12:03:51.165Z,9.77
2023-04-29T12:06:18.055Z,9.70
2023-04-29T12:08:46.790Z,9.23
2023-04-29T12:11:14.048Z,7.93
2023-04-29T12:13:42.662Z,7.17
2023-04-29T12:16:11.008Z,7.43
2023-04-29T12:18:38.978Z,6.27
2023-04-29T12:21:10.977Z,10.83
2023-04-29T12:23:38.000Z,21.57
2023-04-29T12:26:04.646Z,6.40
2023-04-29T12:28:32.235Z,5.50
2023-04-29T12:30:58.858Z,6.90
2023-04-29T12:33:26.944Z,7.17
2023-04-29T12:35:57.930Z,8.13
2023-04-29T12:38:27.876Z,5.40
2023-04-29T12:40:55.052Z,5.40
2023-04-29T12:43:52.710Z,5.87
2023-04-29T12:46:19.482Z,5.77
2023-04-29T12:48:46.385Z,5.90
2023-04-29T12:51:14.468Z,6.53
2023-04-29T12:53:41.292Z,8.27
2023-04-29T12:56:09.280Z,8.30
2023-04-29T12:58:36.734Z,6.50
2023-04-29T13:01:06.901Z,6.03
2023-04-29T13:03:34.441Z,6.50
2023-04-29T13:06:02.827Z,5.50
2023-04-29T13:08:30.357Z,5.57
2023-04-29T13:10:57.140Z,6.23
2023-04-29T13:13:25.845Z,6.93
2023-04-29T13:15:53.735Z,7.20
2023-04-29T13:18:24.790Z,7.40
2023-04-29T13:20:53.180Z,7.30
2023-04-29T13:23:20.063Z,6.47
2023-04-29T13:25:47.061Z,7.57
2023-04-29T13:28:16.963Z,6.60
2023-04-29T13:30:43.763Z,6.80
2023-04-29T13:33:12.774Z,7.90
2023-04-29T13:35:42.024Z,7.87
2023-04-29T13:38:09.055Z,6.63
2023-04-29T13:40:39.314Z,6.50
2023-04-29T13:43:11.610Z,6.30
2023-04-29T13:45:43.745Z,7.20
2023-04-29T13:48:34.956Z,6.97
2023-04-29T13:54:10.645Z,7.37
2023-04-29T14:03:53.803Z,7.10
2023-04-29T14:06:20.765Z,6.73
2023-04-29T14:08:47.546Z,7.73
2023-04-29T14:11:14.374Z,7.67
2023-04-29T14:13:41.624Z,8.00
2023-04-29T14:16:09.619Z,8.20
2023-04-29T14:18:37.325Z,8.33
2023-04-29T14:21:04.212Z,7.50
2023-04-29T14:23:31.065Z,7.63
2023-04-29T14:26:11.507Z,7.73
2023-04-29T14:28:44.523Z,7.60
2023-04-29T14:31:14.003Z,8.10
2023-04-29T14:33:41.594Z,7.40
2023-04-29T14:36:08.612Z,7.67
2023-04-29T14:38:38.860Z,7.57
2023-04-29T14:41:05.837Z,6.87
2023-04-29T14:43:32.547Z,6.93
2023-04-29T14:46:01.081Z,7.07
2023-04-29T14:48:30.939Z,8.10
2023-04-29T14:50:57.966Z,6.63
2023-04-29T14:53:25.949Z,7.70
2023-04-29T14:55:52.608Z,7.27
2023-04-29T14:58:19.485Z,7.00
2023-04-29T15:00:47.459Z,7.10
2023-04-29T15:03:22.489Z,7.00
2023-04-29T15:05:51.410Z,7.67
2023-04-29T15:08:19.226Z,7.57
2023-04-29T15:10:50.924Z,7.83
2023-04-29T15:13:17.807Z,7.30
2023-04-29T15:15:44.566Z,7.17
2023-04-29T15:18:12.264Z,7.67
2023-04-29T15:20:39.199Z,7.33
2023-04-29T15:23:06.203Z,7.20
2023-04-29T15:25:37.894Z,7.07
2023-04-29T15:28:05.845Z,8.07
2023-04-29T15:30:32.562Z,7.27
2023-04-29T15:33:04.394Z,7.60
2023-04-29T15:35:31.792Z,8.27
2023-04-29T15:38:01.501Z,6.90
2023-04-29T15:40:28.440Z,7.53
2023-04-29T15:42:55.310Z,7.80
2023-04-29T15:45:22.918Z,7.07
2023-04-29T15:47:49.874Z,7.77
2023-04-29T15:50:16.616Z,9.00
2023-04-29T15:52:43.533Z,11.37
2023-04-29T15:55:12.492Z,12.60
2023-04-29T15:57:42.925Z,10.47
2023-04-29T16:00:10.131Z,8.30
2023-04-29T16:02:37.194Z,8.27
2023-04-29T16:05:04.423Z,8.63
2023-04-29T16:07:31.459Z,9.27
2023-04-29T16:09:58.264Z,8.37
2023-04-29T16:12:25.863Z,10.00
2023-04-29T16:14:55.662Z,11.03
2023-04-29T16:17:22.632Z,9.80
2023-04-29T16:19:49.871Z,8.87
2023-04-29T16:22:16.711Z,9.20
2023-04-29T16:24:47.855Z,10.50
2023-04-29T16:27:16.624Z,8.90
2023-04-29T16:29:43.615Z,9.00
2023-04-29T16:32:14.934Z,9.93
2023-04-29T16:34:42.968Z,9.20
2023-04-29T16:37:12.602Z,8.87
2023-04-29T16:39:39.898Z,9.67
2023-04-29T16:42:07.047Z,10.00
2023-04-29T16:44:34.752Z,11.57
2023-04-29T16:47:02.999Z,10.50
2023-04-29T16:49:30.662Z,11.50
2023-04-29T16:51:57.493Z,11.13
2023-04-29T16:54:24.538Z,11.17
2023-04-29T16:56:51.437Z,11.57
2023-04-29T16:59:18.246Z,12.23
2023-04-29T17:01:45.382Z,11.73
2023-04-29T17:04:12.148Z,13.07
2023-04-29T17:06:40.963Z,12.97
2023-04-29T17:09:08.437Z,11.43
2023-04-29T17:11:35.183Z,18.77
2023-04-29T17:14:01.901Z,13.40
2023-04-29T17:16:31.468Z,15.30
2023-04-29T17:18:58.748Z,12.30
2023-04-29T17:21:26.119Z,18.57
2023-04-29T17:23:53.595Z,12.10
2023-04-29T17:26:21.351Z,11.80
2023-04-29T17:28:48.658Z,11.87
2023-04-29T17:31:15.968Z,17.80
2023-04-29T17:33:54.915Z,15.30
2023-04-29T17:36:22.771Z,15.20
2023-04-29T17:38:49.552Z,11.57
2023-04-29T17:41:16.621Z,12.10
2023-04-29T17:43:43.403Z,12.10
2023-04-29T17:46:10.518Z,11.83
2023-04-29T17:48:37.267Z,11.27
2023-04-29T17:51:04.177Z,11.67
2023-04-29T17:53:33.238Z,11.97
2023-04-29T17:56:00.146Z,12.63
2023-04-29T17:58:29.209Z,12.33
2023-04-29T18:00:57.412Z,11.27
2023-04-29T18:03:24.363Z,11.27
2023-04-29T18:05:51.300Z,8.43
2023-04-29T18:08:18.184Z,8.33
2023-04-29T18:10:47.168Z,7.77
2023-04-29T18:13:14.106Z,8.30
2023-04-29T18:15:40.971Z,8.70
2023-04-29T18:18:08.198Z,8.50
2023-04-29T18:20:35.108Z,8.90
2023-04-29T18:23:01.884Z,9.43
2023-04-29T18:25:28.650Z,9.70
2023-04-29T18:28:07.652Z,9.53
2023-04-29T18:30:42.568Z,9.47
2023-04-29T18:33:09.331Z,10.80
2023-04-29T18:35:36.141Z,9.27
2023-04-29T18:38:02.790Z,9.23
2023-04-29T18:40:29.473Z,9.20
2023-04-29T18:42:56.236Z,9.97
2023-04-29T18:45:23.108Z,9.03
2023-04-29T18:47:50.021Z,8.07
2023-04-29T18:50:17.587Z,9.40
2023-04-29T18:52:44.265Z,8.80
2023-04-29T18:55:12.474Z,9.47
2023-04-29T18:57:39.675Z,8.67
2023-04-29T19:00:07.045Z,9.10
2023-04-29T19:02:34.989Z,8.80
2023-04-29T19:05:06.028Z,8.57
2023-04-29T19:07:33.190Z,8.80
2023-04-29T19:09:59.985Z,9.13
2023-04-29T19:12:27.084Z,8.73
2023-04-29T19:14:53.824Z,8.93
2023-04-29T19:17:20.993Z,9.87
2023-04-29T19:19:47.703Z,9.63
2023-04-29T19:22:14.373Z,8.53
2023-04-29T19:24:42.206Z,9.40
2023-04-29T19:27:10.052Z,9.40
2023-04-29T19:29:37.342Z,9.40
2023-04-29T19:32:05.331Z,9.43
2023-04-29T19:34:32.066Z,8.93
2023-04-29T19:36:58.747Z,8.47
2023-04-29T19:39:26.634Z,8.27
2023-04-29T19:41:53.818Z,8.33
2023-04-29T19:44:20.471Z,8.50
2023-04-29T19:46:49.861Z,8.57
2023-04-29T19:49:16.787Z,8.57
2023-04-29T19:51:44.297Z,8.70
2023-04-29T19:54:11.016Z,8.93
2023-04-29T19:56:38.297Z,8.90
2023-04-29T19:59:05.157Z,8.60
2023-04-29T20:01:32.171Z,8.13
2023-04-29T20:04:00.797Z,7.87
2023-04-29T20:06:28.408Z,7.47
2023-04-29T20:08:55.278Z,7.70
2023-04-29T20:11:22.792Z,7.30
2023-04-29T20:13:49.632Z,7.97
2023-04-29T20:16:18.295Z,6.40
2023-04-29T20:18:45.028Z,7.50
2023-04-29T20:21:12.432Z,7.50
2023-04-29T20:23:39.237Z,7.27
2023-04-29T20:26:06.135Z,7.83
2023-04-29T20:28:32.772Z,8.13
2023-04-29T20:31:01.811Z,8.10
2023-04-29T20:33:28.530Z,7.90
2023-04-29T20:35:55.319Z,8.33
2023-04-29T20:38:24.824Z,7.90
2023-04-29T20:40:54.803Z,8.53
2023-04-29T20:43:21.500Z,8.27
2023-04-29T20:45:55.787Z,8.57
2023-04-29T20:48:22.896Z,8.23
2023-04-29T20:50:49.582Z,8.87
2023-04-29T20:53:18.032Z,8.20
2023-04-29T20:55:44.960Z,8.10
2023-04-29T20:58:12.273Z,8.17
2023-04-29T21:00:40.062Z,8.07
2023-04-29T21:03:07.834Z,8.47
2023-04-29T21:05:34.870Z,8.23
2023-04-29T21:08:01.605Z,8.57
2023-04-29T21:10:28.248Z,8.20
2023-04-29T21:12:55.790Z,7.90
2023-04-29T21:15:22.554Z,8.47
2023-04-29T21:17:50.151Z,8.13
2023-04-29T21:20:17.319Z,7.57
2023-04-29T21:22:45.246Z,8.13
2023-04-29T21:25:11.965Z,8.43
2023-04-29T21:27:38.731Z,8.10
2023-04-29T21:30:06.985Z,7.50
2023-04-29T21:32:33.965Z,8.13
2023-04-29T21:35:01.033Z,8.40
2023-04-29T21:37:30.393Z,7.53
2023-04-29T21:39:57.788Z,7.83
2023-04-29T21:42:26.162Z,8.37
2023-04-29T21:44:53.746Z,10.10
2023-04-29T21:47:21.278Z,8.67
2023-04-29T21:49:47.842Z,8.77
2023-04-29T21:52:14.454Z,8.77
2023-04-29T21:54:41.029Z,8.90
2023-04-29T21:57:07.627Z,8.20
2023-04-29T21:59:35.664Z,8.40
2023-04-29T22:02:04.144Z,8.37
2023-04-29T22:04:31.154Z,8.60
2023-04-29T22:06:58.606Z,8.20
2023-04-29T22:09:26.036Z,8.07
2023-04-29T22:11:52.672Z,7.30
2023-04-29T22:14:20.111Z,9.50
2023-04-29T22:16:46.792Z,8.43
2023-04-29T22:19:13.671Z,8.13
2023-04-29T22:21:43.077Z,9.60
2023-04-29T22:24:10.088Z,8.87
2023-04-29T22:26:36.738Z,8.23
2023-04-29T22:29:03.523Z,8.97
2023-04-29T22:31:30.972Z,9.13
2023-04-29T22:33:57.664Z,8.13
2023-04-29T22:36:24.420Z,8.00
2023-04-29T22:38:52.182Z,7.70
2023-04-29T22:41:19.797Z,7.50
2023-04-29T22:43:47.596Z,8.43
2023-04-29T22:46:14.341Z,7.43
2023-04-29T22:48:40.980Z,7.10
2023-04-29T22:51:07.605Z,8.03
2023-04-29T22:53:34.166Z,7.37
2023-04-29T22:56:02.203Z,8.17
2023-04-29T22:58:28.915Z,7.50
2023-04-29T23:00:58.822Z,7.80
2023-04-29T23:03:26.049Z,7.10
2023-04-29T23:05:54.990Z,7.20
2023-04-29T23:08:21.619Z,7.10
2023-04-29T23:10:51.640Z,6.87
2023-04-29T23:13:19.153Z,6.50
2023-04-29T23:15:45.814Z,6.37
2023-04-29T23:18:12.574Z,6.70
2023-04-29T23:20:39.260Z,6.10
2023-04-29T23:23:06.059Z,6.30
2023-04-29T23:25:32.622Z,6.90
2023-04-29T23:27:59.299Z,6.30
2023-04-29T23:30:26.279Z,5.70
2023-04-29T23:32:52.967Z,6.83
2023-04-29T23:35:19.595Z,5.80
2023-04-29T23:37:46.162Z,6.37
2023-04-29T23:40:12.770Z,6.47
2023-04-29T23:42:39.483Z,6.07
2023-04-29T23:45:06.501Z,5.57
2023-04-29T23:47:33.180Z,5.83
2023-04-29T23:50:00.704Z,5.37
2023-04-29T23:52:28.133Z,5.10
2023-04-29T23:54:54.749Z,5.03
2023-04-29T23:57:21.416Z,4.60
2023-04-29T23:59:47.984Z,5.40
